Terminal Aerodrome Forecast
Issued by NWS

Home | Current Version | Previous Version | Text Only | Print | Product List | Glossary On
Versions: 1 2 3 4 5 6 7 8 9 10 11 12 13 14 15 16 17 18 19 20
000
FTUS45 KVEF 011723
TAFVGT
TAF
KVGT 011723Z 0118/0218 14008KT P6SM VCTS BKN110CB
      TEMPO 0118/0122 VRB15G25KT 6SM -TSRA SCT070CB BKN100
     FM012200 14008KT P6SM VCTS FEW070CB BKN100
     FM020300 11008KT P6SM BKN100
     FM020900 34006KT P6SM BKN100
     FM021500 34006KT P6SM SCT120=

USA.gov is the U.S. government's official web portal to all federal, state and local government web resources and services.